Liverpool, West Virginia
Current Conditions -  °F | °C
As of 1:22 AM on Wednesday 22 Oct 2014 (Local Time) from KPKB Reporting Station
Light Rain Light Rain  
Wind Chill: 42°   Ceiling: 1400
Heat Index: 46°   Visibility: 7mi
Dew Point: 42°   Wind: 8mph
Humidity: 86%   Direction: 300°WNW
Pressure: 30.11"   Gusts: NA
Location:  38.9557°N, 81.5714°W
Report Text: KPKB 220522Z AUTO 30007KT 7SM -RA OVC014 08/06 A3011 RMK AO2 RAB0457 P0001 T00780056
Loading
Personal Weather Stations






























Interactive Weather Map
Tropical Storm Tracking
New forecast layout! Learn more

10-Day Weather Forecast

Advertisements
Track Severe Weather on mobile